Flight Track Log - Related Links

Times and Time Zones

All times are in EDT time to prevent confusion due to time zone crossing. See the SWA655 flight status page for this flight to view local times or setup timezone preferences in your user account.

Time Position Orientation Groundspeed Altitude Reporting Facility
EDT Latitude Longitude Course Direction KTS MPH feet Rate Location/Type
Sat 01:59:05 PM 39.3167 -94.7167 360° North 147 169 1,700  Level Kansas City TRACON
Sat 01:59:35 PM 39.3333 -94.7167 360° North 157 181 2,800 3,000 Climbing Kansas City TRACON
Sat 02:00:41 PM 39.3500 -94.7833 288° West 215 247 6,500 3,300 Climbing Kansas City TRACON
Sat 02:01:55 PM 39.3267 -94.8775 252° West 213 245 10,500 3,044 Climbing Kansas City Center
Sat 02:02:57 PM 39.3136 -94.9794 261° West 301 346 13,400 2,177 Climbing Kansas City Center
Sat 02:03:59 PM 39.2786 -95.0781 245° Southwest 334 384 15,000 774 Climbing Kansas City Center
Sat 02:05:01 PM 39.1656 -95.1028 190° South 362 417 15,000 1,113 Level Kansas City Center
Sat 02:06:03 PM 39.0786 -95.1614 208° Southwest 349 402 17,300 2,468 Climbing Kansas City Center
Sat 02:07:05 PM 39.0233 -95.2633 235° Southwest 354 407 20,100 2,710 Climbing Kansas City Center
Sat 02:08:07 PM 38.9458 -95.3611 224° Southwest 385 443 22,900 2,661 Climbing Kansas City Center
Sat 02:09:09 PM 38.8697 -95.4569 224° Southwest 397 457 25,600 2,516 Climbing Kansas City Center
Sat 02:10:11 PM 38.7786 -95.5750 225° Southwest 413 475 28,100 2,177 Climbing Kansas City Center
Sat 02:11:13 PM 38.6953 -95.6794 224° Southwest 435 501 30,100 2,323 Climbing Kansas City Center
Sat 02:12:15 PM 38.6003 -95.8008 225° Southwest 433 498 32,900 2,323 Climbing Kansas City Center
Sat 02:13:17 PM 38.5169 -95.9017 223° Southwest 430 495 34,900 1,306 Climbing Kansas City Center
Sat 02:14:19 PM 38.4233 -96.0206 225° Southwest 427 491 35,600 532 Climbing Kansas City Center
Sat 02:15:21 PM 38.3425 -96.1211 224° Southwest 424 488 36,000 194 Climbing Kansas City Center
Sat 02:16:23 PM 38.2489 -96.2356 224° Southwest 418 481 36,000  Level Kansas City Center
Sat 02:17:25 PM 38.1628 -96.3442 225° Southwest 423 487 36,000  Level Kansas City Center
Sat 02:18:27 PM 38.0764 -96.4503 224° Southwest 430 495 36,000  Level Kansas City Center
Sat 02:19:29 PM 37.9886 -96.5572 224° Southwest 436 502 36,000  Level Kansas City Center
Sat 02:20:31 PM 37.9014 -96.6636 224° Southwest 434 499 36,000  Level Kansas City Center
Sat 02:21:33 PM 37.8139 -96.7703 224° Southwest 435 501 36,000  Level Kansas City Center
Sat 02:22:35 PM 37.7267 -96.8767 224° Southwest 433 498 36,000  Level Kansas City Center
Sat 02:23:37 PM 37.6392 -96.9811 223° Southwest 432 497 36,000  Level Kansas City Center
Sat 02:24:39 PM 37.5342 -97.1069 224° Southwest 432 497 36,000  Level Kansas City Center
Sat 02:25:41 PM 37.4472 -97.2133 224° Southwest 433 498 36,000  Level Kansas City Center
Sat 02:26:43 PM 37.3586 -97.3164 223° Southwest 433 498 36,000  Level Kansas City Center
Sat 02:27:45 PM 37.2697 -97.4228 224° Southwest 435 501 36,000  Level Kansas City Center
Sat 02:28:47 PM 37.1814 -97.5264 223° Southwest 435 501 36,000  Level Kansas City Center
Sat 02:29:49 PM 37.0917 -97.6331 223° Southwest 440 506 36,000  Level Kansas City Center
Sat 02:30:51 PM 37.0025 -97.7406 224° Southwest 442 509 36,000  Level Kansas City Center
Sat 02:31:53 PM 36.9108 -97.8447 222° Southwest 444 511 36,000  Level Kansas City Center
Sat 02:32:55 PM 36.8014 -97.9725 223° Southwest 441 507 36,000  Level Kansas City Center
Sat 02:33:57 PM 36.7136 -98.0767 224° Southwest 436 502 36,000  Level Kansas City Center
Sat 02:34:59 PM 36.6244 -98.1789 223° Southwest 434 499 36,000  Level Kansas City Center
Sat 02:36:00 PM 36.5361 -98.2814 223° Southwest 433 498 36,000  Level Kansas City Center
Sat 02:37:02 PM 36.4511 -98.3853 225° Southwest 430 495 36,000  Level Kansas City Center
Sat 02:38:04 PM 36.3636 -98.4861 223° Southwest 428 493 36,000  Level Kansas City Center
Sat 02:39:06 PM 36.2750 -98.5875 223° Southwest 430 495 36,000  Level Kansas City Center
Sat 02:40:08 PM 36.1861 -98.6894 223° Southwest 432 497 36,000  Level Kansas City Center
Sat 02:41:10 PM 36.0633 -98.7522 202° Southwest 436 502 36,000  Level Kansas City Center
Sat 02:42:12 PM 35.9392 -98.7417 176° South 446 513 36,000  Level Kansas City Center
Sat 02:43:14 PM 35.8156 -98.7331 177° South 446 513 36,000  Level Kansas City Center
Sat 02:44:16 PM 35.6789 -98.7231 177° South 446 513 36,000  Level Kansas City Center
Sat 02:45:18 PM 35.5536 -98.7133 176° South 446 513 36,000  Level Kansas City Center
Sat 02:46:19 PM 35.4314 -98.7039 176° South 443 510 36,000  Level Fort Worth Center
Sat 02:47:21 PM 35.3092 -98.6933 176° South 440 506 36,000  Level Fort Worth Center
Sat 02:48:23 PM 35.1864 -98.6853 177° South 439 505 36,000  Level Fort Worth Center
Sat 02:49:25 PM 35.0628 -98.6753 176° South 440 506 36,000  Level Fort Worth Center
Sat 02:50:27 PM 34.9158 -98.6642 176° South 439 505 36,000  Level Fort Worth Center
Sat 02:51:29 PM 34.7933 -98.6561 177° South 439 505 36,000  Level Fort Worth Center
Sat 02:52:30 PM 34.6706 -98.6461 176° South 439 505 36,000  Level Fort Worth Center
Sat 02:53:32 PM 34.5483 -98.6378 177° South 438 504 36,000  Level Fort Worth Center
Sat 02:54:34 PM 34.4244 -98.6278 176° South 441 507 36,000 -290 Level Fort Worth Center
Sat 02:55:36 PM 34.3017 -98.6169 176° South 442 509 35,400 -1,210 Descending Fort Worth Center
Sat 02:56:38 PM 34.2006 -98.5269 144° Southeast 467 537 33,500 -2,177 Descending Fort Worth Center
Sat 02:57:40 PM 34.1069 -98.4094 134° Southeast 465 535 30,900 -2,419 Descending Fort Worth Center
Sat 02:58:42 PM 34.0131 -98.3058 138° Southeast 451 519 28,500 -2,488 Descending Fort Worth Center
Sat 02:59:43 PM 33.9100 -98.1894 137° Southeast 435 501 25,800 -2,195 Descending Fort Worth Center
Sat 03:00:45 PM 33.8261 -98.0944 137° Southeast 419 482 24,000 -1,452 Descending Fort Worth Center
Sat 03:01:47 PM 33.7439 -97.9917 134° Southeast 409 471 22,800 -1,694 Descending Fort Worth Center
Sat 03:02:49 PM 33.6789 -97.8714 123° Southeast 408 470 20,500 -2,226 Descending Fort Worth Center
Sat 03:03:51 PM 33.6197 -97.7544 121° Southeast 394 453 18,200 -2,000 Descending Fort Worth Center
Sat 03:04:52 PM 33.6078 -97.6317 97° East 386 444 16,400 -1,317 Descending Fort Worth Center
Sat 03:05:54 PM 33.6072 -97.5050 90° East 374 430 15,500 -871 Descending Fort Worth Center
Sat 03:06:56 PM 33.6092 -97.3703 89° East 372 428 14,600 -1,024 Descending Fort Worth Center
Sat 03:07:57 PM 33.5911 -97.2636 101° East 333 383 13,400 -1,512 Descending Fort Worth Center
Sat 03:08:59 PM 33.5339 -97.1825 130° Southeast 309 356 11,500 -1,839 Descending Fort Worth Center
Sat 03:10:01 PM 33.4869 -97.1053 126° Southeast 288 331 9,600 -1,951 Descending Fort Worth Center
Sat 03:11:02 PM 33.4717 -97.0017 100° East 302 348 7,500 -1,902 Descending Fort Worth Center
Sat 03:12:04 PM 33.4206 -96.9308 131° Southeast 281 323 5,700 -1,610 Descending Fort Worth Center
Sat 03:13:05 PM 33.3678 -96.8639 133° Southeast 277 319 4,200 -829 Descending Fort Worth Center
Sat 03:14:07 PM 33.3025 -96.8161 149° Southeast 257 296 4,000 -97 Descending Fort Worth Center
Sat 03:15:09 PM 33.2489 -96.7906 158° South 222 255 4,000 -49 Level Fort Worth Center
Sat 03:16:10 PM 33.1900 -96.8028 190° South 203 234 3,900 -488 Descending Fort Worth Center
Sat 03:17:12 PM 33.1350 -96.8161 191° South 202 232 3,000 -435 Descending Fort Worth Center
Sat 03:18:14 PM 33.0844 -96.8386 200° South 196 226 3,000  Level Fort Worth Center
Sat 03:19:15 PM 33.0381 -96.8794 216° Southwest 199 229 3,000  Level Fort Worth Center
Sat 03:20:17 PM 32.9869 -96.9006 199° South 204 235 3,000 -242 Level Fort Worth Center
Sat 03:21:19 PM 32.9292 -96.9050 184° South 193 222 2,500 -537 Descending Fort Worth Center
Sat 03:22:20 PM 32.8894 -96.9075 183° South 147 169 1,900 -785 Descending Fort Worth Center
Sat 03:23:29 PM 32.8667 -96.8667 124° Southeast 130 150 800 -957 Descending Dallas / Fort Worth TRACON

Login

Don't have an account? Register now (free) for customized features, flight alerts, and more!